Jork Reliance — V2CL2 — position and weather

sailwx.info

Track history (hours):
 
Tides and Currents Weather Stations Pressure Air Temp Water Temp Dewpoint Dewpoint Depression Visibility Wind Speed Wind Dir Waves Ship Positions

Jork Reliance

Last reported at 2015-Jul-06 09:34 UTC. Time now 2015-Jul-06 15:43 UTC.
Position N 52°37' W 005°51'.

Length 141 m; draft 6.9 m.

Type: Ship (hazmat cat A). MMSI: 305033000.

Date/timePositionNaut miles runAvg speedWind from/ knotsBaromVisibWave heightAir tempDewpointWater temp
2015-Jul-06 09:34N 52°37' W 005°51'1414.1
2015-Jul-06 08:33N 52°23' W 005°50'1312.9
2015-Jul-06 07:33N 52°10' W 005°49'1212.4
2015-Jul-06 06:33N 51°57' W 005°48'139 8.0
2015-Jul-05 13:09N 50°04' W 003°40'712.1
2015-Jul-05 12:33N 50°06' W 003°29'1211.6
2015-Jul-05 11:33N 50°09' W 003°11'1110.7
2015-Jul-05 10:33N 50°11' W 002°55'1010.0
2015-Jul-05 09:33N 50°12' W 002°39'10 9.8
2015-Jul-05 08:31N 50°14' W 002°24'3712.4
2015-Jul-05 05:34N 50°22' W 001°27'1515.3
2015-Jul-05 04:34N 50°25' W 001°04'1715.4
2015-Jul-05 03:29N 50°28' W 000°38'1314.1
2015-Jul-05 02:33N 50°31' W 000°18'1313.0
2015-Jul-05 01:34N 50°33' E 000°02'1211.6
2015-Jul-05 00:34N 50°36' E 000°20'1010.4
2015-Jul-04 23:34N 50°39' E 000°35'1110.6
2015-Jul-04 22:34N 50°45' E 000°49'1212.0
2015-Jul-04 21:34N 50°52' E 001°04'1413.9
2015-Jul-04 20:33N 51°01' E 001°21'1514.5
2015-Jul-04 19:33N 51°11' E 001°39'1312.6
2015-Jul-04 18:33N 51°20' E 001°52'1010.1
2015-Jul-04 17:33N 51°23' E 002°07'1110.9
2015-Jul-04 16:34N 51°22' E 002°25'1110.6
2015-Jul-04 15:33N 51°23' E 002°42'1212.0
2015-Jul-04 14:33N 51°24' E 003°01'1313.1
2015-Jul-04 13:33N 51°25' E 003°22'1111.0
2015-Jul-04 12:33N 51°25' E 003°39'1111.0
2015-Jul-04 11:33N 51°24' E 003°57'10 9.7
2015-Jul-04 10:33N 51°24' E 004°13'4 4.2
2015-Jul-04 09:33N 51°20' E 004°17'0 0.0
2015-Jul-04 08:34N 51°20' E 004°17'0 0.0
2015-Jul-04 07:34N 51°20' E 004°17'0 0.0
2015-Jul-04 06:34N 51°20' E 004°17'0 0.0
2015-Jul-04 05:33N 51°20' E 004°17'0 0.0
2015-Jul-04 04:34N 51°20' E 004°17'0 0.0
2015-Jul-04 03:34N 51°20' E 004°17'0 0.0
2015-Jul-04 02:34N 51°20' E 004°17'0 0.0
2015-Jul-04 01:34N 51°20' E 004°17'0 0.0
2015-Jul-04 00:34N 51°20' E 004°17'0 0.0
2015-Jul-03 23:34N 51°20' E 004°17'0 0.0
2015-Jul-03 22:34N 51°20' E 004°17'0 0.0
2015-Jul-03 21:33N 51°20' E 004°17'0 0.0
2015-Jul-03 20:34N 51°20' E 004°17'0 0.3
2015-Jul-03 19:33N 51°20' E 004°16'9 9.3
2015-Jul-03 18:34N 51°23' E 004°02'8 7.8
2015-Jul-03 17:34N 51°21' E 003°50'1211.6
2015-Jul-03 16:33N 51°26' E 003°34'1010.1
2015-Jul-03 15:33N 51°34' E 003°24'1414.0
2015-Jul-03 14:33N 51°46' E 003°13'17 3.9
2015-Jul-03 10:08N 52°02' E 003°24'813.4
2015-Jul-03 09:33N 52°03' E 003°37'1211.7
2015-Jul-03 08:33N 52°02' E 003°56'1313.3
2015-Jul-03 07:33N 51°55' E 004°14'7 6.6
2015-Jul-03 06:32N 51°53' E 004°25'0 0.0
2015-Jul-03 05:32N 51°53' E 004°25'0 0.0
2015-Jul-03 04:32N 51°53' E 004°25'0 0.0
2015-Jul-03 03:32N 51°53' E 004°25'0 0.0
2015-Jul-03 02:32N 51°53' E 004°25'0 0.0
2015-Jul-03 01:32N 51°53' E 004°25'0 0.0
2015-Jul-03 00:32N 51°53' E 004°25'0 0.0
2015-Jul-02 23:32N 51°53' E 004°25'0 0.0
2015-Jul-02 22:32N 51°53' E 004°25'0 0.3
2015-Jul-02 21:32N 51°53' E 004°24'0 0.3
2015-Jul-02 20:32N 51°53' E 004°25'2 1.9
2015-Jul-02 19:33N 51°54' E 004°22'1110.6
2015-Jul-02 18:33N 51°59' E 004°07'1313.5
2015-Jul-02 17:33N 52°00' E 003°45'1616.3
2015-Jul-02 16:34N 51°54' E 003°20'1717.3
2015-Jul-02 15:34N 51°49' E 002°54'1717.1
2015-Jul-02 14:33N 51°41' E 002°30'1818.3
2015-Jul-02 13:34N 51°26' E 002°12'1818.0
2015-Jul-02 12:34N 51°11' E 001°56'1919.5
2015-Jul-02 11:34N 50°58' E 001°33'1918.8
2015-Jul-02 10:34N 50°42' E 001°19'1817.9
2015-Jul-02 09:34N 50°31' E 000°57'1918.6
2015-Jul-02 08:34N 50°25' E 000°29'1918.8
2015-Jul-02 07:34N 50°21' W 000°00'5517.6
2015-Jul-02 04:25N 50°18' W 001°26'1415.5
2015-Jul-02 03:32N 50°16' W 001°48'1414.2
2015-Jul-02 02:33N 50°14' W 002°09'1413.9
2015-Jul-02 01:33N 50°11' W 002°31'1414.4
2015-Jul-02 00:34N 50°09' W 002°52'1515.3
2015-Jul-01 23:34N 50°06' W 003°16'10811.5
2015-Jul-01 14:10N 50°34' W 005°60'1016.0
2015-Jul-01 13:33N 50°44' W 005°59'1716.7
2015-Jul-01 12:33N 51°00' W 005°59'1717.0
2015-Jul-01 11:32N 51°18' W 005°58'1716.9
2015-Jul-01 10:32N 51°34' W 005°58'1616.4
2015-Jul-01 09:33N 51°51' W 005°56'1515.2
2015-Jul-01 08:33N 52°06' W 005°55'1514.5
2015-Jul-01 07:33N 52°20' W 005°53'1514.7
2015-Jul-01 06:33N 52°35' W 005°54'4 0.1
2015-Jun-29 07:34N 52°39' W 005°52'1413.6
2015-Jun-29 06:33N 52°25' W 005°50'1414.0
2015-Jun-29 05:33N 52°11' W 005°48'1413.6
2015-Jun-29 04:33N 51°58' W 005°47'1313.1
2015-Jun-29 03:33N 51°45' W 005°49'1412.4
2015-Jun-29 02:28N 51°31' W 005°51'2712.1
2015-Jun-29 00:14N 51°04' W 005°52'102 7.8
2015-Jun-28 11:14N 50°04' W 003°42'912.8
2015-Jun-28 10:33N 50°06' W 003°29'1312.9
2015-Jun-28 09:33N 50°09' W 003°09'1312.7
2015-Jun-28 08:33N 50°11' W 002°50'1212.1
2015-Jun-28 07:33N 50°13' W 002°32'1212.1
2015-Jun-28 06:32N 50°16' W 002°13'1110.5
2015-Jun-28 05:30N 50°18' W 001°56'9 9.8
2015-Jun-28 04:33N 50°19' W 001°42'10 9.9
2015-Jun-28 03:33N 50°22' W 001°26'1110.6
2015-Jun-28 02:33N 50°24' W 001°10'1211.7
2015-Jun-28 01:33N 50°26' W 000°52'1313.1
2015-Jun-28 00:33N 50°29' W 000°32'1313.3
2015-Jun-27 23:33N 50°31' W 000°12'1313.2
2015-Jun-27 22:33N 50°34' E 000°09'1312.8
2015-Jun-27 21:33N 50°38' E 000°28'1211.7
2015-Jun-27 20:33N 50°43' E 000°44'1111.1
2015-Jun-27 19:33N 50°50' E 000°59'1110.8
2015-Jun-27 18:31N 50°57' E 001°13'1111.3
2015-Jun-27 17:33N 51°04' E 001°26'1313.1
2015-Jun-27 16:33N 51°12' E 001°42'1313.4
2015-Jun-27 15:33N 51°22' E 001°56'1111.0
2015-Jun-27 14:33N 51°21' E 002°13'1212.1
2015-Jun-27 13:32N 51°23' E 002°33'1111.7
2015-Jun-27 12:34N 51°23' E 002°51'1615.7
2015-Jun-27 11:34N 51°25' E 003°16'1414.1
2015-Jun-27 10:34N 51°26' E 003°39'1211.7
2015-Jun-27 09:34N 51°23' E 003°57'9 9.0
2015-Jun-27 08:34N 51°24' E 004°11'5 4.5
2015-Jun-27 07:30N 51°20' E 004°16'0 0.0
2015-Jun-27 06:33N 51°20' E 004°16'0 0.0
2015-Jun-27 05:33N 51°20' E 004°16'0 0.0
2015-Jun-27 04:33N 51°20' E 004°16'0 0.0
2015-Jun-27 03:33N 51°20' E 004°16'0 0.0
2015-Jun-27 02:33N 51°20' E 004°16'0 0.0
2015-Jun-27 01:33N 51°20' E 004°16'0 0.0
2015-Jun-27 00:30N 51°20' E 004°16'0 0.0
2015-Jun-26 23:33N 51°20' E 004°16'0 0.0
2015-Jun-26 22:33N 51°20' E 004°16'0 0.0
2015-Jun-26 21:30N 51°20' E 004°16'0 0.0
2015-Jun-26 20:30N 51°20' E 004°16'0 0.0
2015-Jun-26 19:33N 51°20' E 004°16'0 0.0
2015-Jun-26 18:33N 51°20' E 004°16'0 0.0
2015-Jun-26 17:33N 51°20' E 004°16'0 0.0
2015-Jun-26 16:33N 51°20' E 004°16'1 0.5
2015-Jun-26 15:33N 51°21' E 004°16'1110.8
2015-Jun-26 14:34N 51°26' E 004°01'1111.4
2015-Jun-26 13:33N 51°23' E 003°43'1413.8
2015-Jun-26 12:33N 51°31' E 003°26'1414.4
2015-Jun-26 11:34N 51°44' E 003°13'1211.5
2015-Jun-26 10:33N 51°55' E 003°19'10 9.9
2015-Jun-26 09:34N 52°03' E 003°29'  
Track history (hours):
 
Tides and Currents Weather Stations Pressure Air Temp Water Temp Dewpoint Dewpoint Depression Visibility Wind Speed Wind Dir Waves Ship Positions

Jork Reliance

Last reported at 2015-Jul-06 09:34 UTC. Time now 2015-Jul-06 15:43 UTC.
Position N 52°37' W 005°51'.

Length 141 m; draft 6.9 m.

Type: Ship (hazmat cat A). MMSI: 305033000.

Date/timePositionNaut miles runAvg speedWind from/ knotsBaromVisibWave heightAir tempDewpointWater temp
2015-Jul-06 09:34N 52°37' W 005°51'1414.1
2015-Jul-06 08:33N 52°23' W 005°50'1312.9
2015-Jul-06 07:33N 52°10' W 005°49'1212.4
2015-Jul-06 06:33N 51°57' W 005°48'139 8.0
2015-Jul-05 13:09N 50°04' W 003°40'712.1
2015-Jul-05 12:33N 50°06' W 003°29'1211.6
2015-Jul-05 11:33N 50°09' W 003°11'1110.7
2015-Jul-05 10:33N 50°11' W 002°55'1010.0
2015-Jul-05 09:33N 50°12' W 002°39'10 9.8
2015-Jul-05 08:31N 50°14' W 002°24'3712.4
2015-Jul-05 05:34N 50°22' W 001°27'1515.3
2015-Jul-05 04:34N 50°25' W 001°04'1715.4
2015-Jul-05 03:29N 50°28' W 000°38'1314.1
2015-Jul-05 02:33N 50°31' W 000°18'1313.0
2015-Jul-05 01:34N 50°33' E 000°02'1211.6
2015-Jul-05 00:34N 50°36' E 000°20'1010.4
2015-Jul-04 23:34N 50°39' E 000°35'1110.6
2015-Jul-04 22:34N 50°45' E 000°49'1212.0
2015-Jul-04 21:34N 50°52' E 001°04'1413.9
2015-Jul-04 20:33N 51°01' E 001°21'1514.5
2015-Jul-04 19:33N 51°11' E 001°39'1312.6
2015-Jul-04 18:33N 51°20' E 001°52'1010.1
2015-Jul-04 17:33N 51°23' E 002°07'1110.9
2015-Jul-04 16:34N 51°22' E 002°25'1110.6
2015-Jul-04 15:33N 51°23' E 002°42'1212.0
2015-Jul-04 14:33N 51°24' E 003°01'1313.1
2015-Jul-04 13:33N 51°25' E 003°22'1111.0
2015-Jul-04 12:33N 51°25' E 003°39'1111.0
2015-Jul-04 11:33N 51°24' E 003°57'10 9.7
2015-Jul-04 10:33N 51°24' E 004°13'4 4.2
2015-Jul-04 09:33N 51°20' E 004°17'0 0.0
2015-Jul-04 08:34N 51°20' E 004°17'0 0.0
2015-Jul-04 07:34N 51°20' E 004°17'0 0.0
2015-Jul-04 06:34N 51°20' E 004°17'0 0.0
2015-Jul-04 05:33N 51°20' E 004°17'0 0.0
2015-Jul-04 04:34N 51°20' E 004°17'0 0.0
2015-Jul-04 03:34N 51°20' E 004°17'0 0.0
2015-Jul-04 02:34N 51°20' E 004°17'0 0.0
2015-Jul-04 01:34N 51°20' E 004°17'0 0.0
2015-Jul-04 00:34N 51°20' E 004°17'0 0.0
2015-Jul-03 23:34N 51°20' E 004°17'0 0.0
2015-Jul-03 22:34N 51°20' E 004°17'0 0.0
2015-Jul-03 21:33N 51°20' E 004°17'0 0.0
2015-Jul-03 20:34N 51°20' E 004°17'0 0.3
2015-Jul-03 19:33N 51°20' E 004°16'9 9.3
2015-Jul-03 18:34N 51°23' E 004°02'8 7.8
2015-Jul-03 17:34N 51°21' E 003°50'1211.6
2015-Jul-03 16:33N 51°26' E 003°34'1010.1
2015-Jul-03 15:33N 51°34' E 003°24'1414.0
2015-Jul-03 14:33N 51°46' E 003°13'17 3.9
2015-Jul-03 10:08N 52°02' E 003°24'813.4
2015-Jul-03 09:33N 52°03' E 003°37'1211.7
2015-Jul-03 08:33N 52°02' E 003°56'1313.3
2015-Jul-03 07:33N 51°55' E 004°14'7 6.6
2015-Jul-03 06:32N 51°53' E 004°25'0 0.0
2015-Jul-03 05:32N 51°53' E 004°25'0 0.0
2015-Jul-03 04:32N 51°53' E 004°25'0 0.0
2015-Jul-03 03:32N 51°53' E 004°25'0 0.0
2015-Jul-03 02:32N 51°53' E 004°25'0 0.0
2015-Jul-03 01:32N 51°53' E 004°25'0 0.0
2015-Jul-03 00:32N 51°53' E 004°25'0 0.0
2015-Jul-02 23:32N 51°53' E 004°25'0 0.0
2015-Jul-02 22:32N 51°53' E 004°25'0 0.3
2015-Jul-02 21:32N 51°53' E 004°24'0 0.3
2015-Jul-02 20:32N 51°53' E 004°25'2 1.9
2015-Jul-02 19:33N 51°54' E 004°22'1110.6
2015-Jul-02 18:33N 51°59' E 004°07'1313.5
2015-Jul-02 17:33N 52°00' E 003°45'1616.3
2015-Jul-02 16:34N 51°54' E 003°20'1717.3
2015-Jul-02 15:34N 51°49' E 002°54'1717.1
2015-Jul-02 14:33N 51°41' E 002°30'1818.3
2015-Jul-02 13:34N 51°26' E 002°12'1818.0
2015-Jul-02 12:34N 51°11' E 001°56'1919.5
2015-Jul-02 11:34N 50°58' E 001°33'1918.8
2015-Jul-02 10:34N 50°42' E 001°19'1817.9
2015-Jul-02 09:34N 50°31' E 000°57'1918.6
2015-Jul-02 08:34N 50°25' E 000°29'1918.8
2015-Jul-02 07:34N 50°21' W 000°00'5517.6
2015-Jul-02 04:25N 50°18' W 001°26'1415.5
2015-Jul-02 03:32N 50°16' W 001°48'1414.2
2015-Jul-02 02:33N 50°14' W 002°09'1413.9
2015-Jul-02 01:33N 50°11' W 002°31'1414.4
2015-Jul-02 00:34N 50°09' W 002°52'1515.3
2015-Jul-01 23:34N 50°06' W 003°16'10811.5
2015-Jul-01 14:10N 50°34' W 005°60'1016.0
2015-Jul-01 13:33N 50°44' W 005°59'1716.7
2015-Jul-01 12:33N 51°00' W 005°59'1717.0
2015-Jul-01 11:32N 51°18' W 005°58'1716.9
2015-Jul-01 10:32N 51°34' W 005°58'1616.4
2015-Jul-01 09:33N 51°51' W 005°56'1515.2
2015-Jul-01 08:33N 52°06' W 005°55'1514.5
2015-Jul-01 07:33N 52°20' W 005°53'1514.7
2015-Jul-01 06:33N 52°35' W 005°54'4 0.1
2015-Jun-29 07:34N 52°39' W 005°52'1413.6
2015-Jun-29 06:33N 52°25' W 005°50'1414.0
2015-Jun-29 05:33N 52°11' W 005°48'1413.6
2015-Jun-29 04:33N 51°58' W 005°47'1313.1
2015-Jun-29 03:33N 51°45' W 005°49'1412.4
2015-Jun-29 02:28N 51°31' W 005°51'2712.1
2015-Jun-29 00:14N 51°04' W 005°52'102 7.8
2015-Jun-28 11:14N 50°04' W 003°42'912.8
2015-Jun-28 10:33N 50°06' W 003°29'1312.9
2015-Jun-28 09:33N 50°09' W 003°09'1312.7
2015-Jun-28 08:33N 50°11' W 002°50'1212.1
2015-Jun-28 07:33N 50°13' W 002°32'1212.1
2015-Jun-28 06:32N 50°16' W 002°13'1110.5
2015-Jun-28 05:30N 50°18' W 001°56'9 9.8
2015-Jun-28 04:33N 50°19' W 001°42'10 9.9
2015-Jun-28 03:33N 50°22' W 001°26'1110.6
2015-Jun-28 02:33N 50°24' W 001°10'1211.7
2015-Jun-28 01:33N 50°26' W 000°52'1313.1
2015-Jun-28 00:33N 50°29' W 000°32'1313.3
2015-Jun-27 23:33N 50°31' W 000°12'1313.2
2015-Jun-27 22:33N 50°34' E 000°09'1312.8
2015-Jun-27 21:33N 50°38' E 000°28'1211.7
2015-Jun-27 20:33N 50°43' E 000°44'1111.1
2015-Jun-27 19:33N 50°50' E 000°59'1110.8
2015-Jun-27 18:31N 50°57' E 001°13'1111.3
2015-Jun-27 17:33N 51°04' E 001°26'1313.1
2015-Jun-27 16:33N 51°12' E 001°42'1313.4
2015-Jun-27 15:33N 51°22' E 001°56'1111.0
2015-Jun-27 14:33N 51°21' E 002°13'1212.1
2015-Jun-27 13:32N 51°23' E 002°33'1111.7
2015-Jun-27 12:34N 51°23' E 002°51'1615.7
2015-Jun-27 11:34N 51°25' E 003°16'1414.1
2015-Jun-27 10:34N 51°26' E 003°39'1211.7
2015-Jun-27 09:34N 51°23' E 003°57'9 9.0
2015-Jun-27 08:34N 51°24' E 004°11'5 4.5
2015-Jun-27 07:30N 51°20' E 004°16'0 0.0
2015-Jun-27 06:33N 51°20' E 004°16'0 0.0
2015-Jun-27 05:33N 51°20' E 004°16'0 0.0
2015-Jun-27 04:33N 51°20' E 004°16'0 0.0
2015-Jun-27 03:33N 51°20' E 004°16'0 0.0
2015-Jun-27 02:33N 51°20' E 004°16'0 0.0
2015-Jun-27 01:33N 51°20' E 004°16'0 0.0
2015-Jun-27 00:30N 51°20' E 004°16'0 0.0
2015-Jun-26 23:33N 51°20' E 004°16'0 0.0
2015-Jun-26 22:33N 51°20' E 004°16'0 0.0
2015-Jun-26 21:30N 51°20' E 004°16'0 0.0
2015-Jun-26 20:30N 51°20' E 004°16'0 0.0
2015-Jun-26 19:33N 51°20' E 004°16'0 0.0
2015-Jun-26 18:33N 51°20' E 004°16'0 0.0
2015-Jun-26 17:33N 51°20' E 004°16'0 0.0
2015-Jun-26 16:33N 51°20' E 004°16'1 0.5
2015-Jun-26 15:33N 51°21' E 004°16'1110.8
2015-Jun-26 14:34N 51°26' E 004°01'1111.4
2015-Jun-26 13:33N 51°23' E 003°43'1413.8
2015-Jun-26 12:33N 51°31' E 003°26'1414.4
2015-Jun-26 11:34N 51°44' E 003°13'1211.5
2015-Jun-26 10:33N 51°55' E 003°19'10 9.9
2015-Jun-26 09:34N 52°03' E 003°29'  

Dump ship's entire track history